sensor_id;sensor_type;location;lat;lon;timestamp;P1;durP1;ratioP1;P2;durP2;ratioP2
57923;SDS011;43737;50.632;3.070;2022-07-18T00:00:31;6.22;;;2.60;;
57923;SDS011;43737;50.632;3.070;2022-07-18T00:02:57;4.80;;;2.70;;
57923;SDS011;43737;50.632;3.070;2022-07-18T00:05:23;10.15;;;3.03;;
57923;SDS011;43737;50.632;3.070;2022-07-18T00:07:49;5.60;;;2.88;;
57923;SDS011;43737;50.632;3.070;2022-07-18T00:10:15;7.15;;;2.92;;
57923;SDS011;43737;50.632;3.070;2022-07-18T00:12:42;6.75;;;3.47;;
57923;SDS011;43737;50.632;3.070;2022-07-18T00:15:08;5.82;;;3.20;;
57923;SDS011;43737;50.632;3.070;2022-07-18T00:17:35;5.32;;;2.88;;
57923;SDS011;43737;50.632;3.070;2022-07-18T00:20:01;4.43;;;2.90;;
57923;SDS011;43737;50.632;3.070;2022-07-18T00:22:27;4.57;;;2.58;;
57923;SDS011;43737;50.632;3.070;2022-07-18T00:24:53;4.85;;;2.60;;
57923;SDS011;43737;50.632;3.070;2022-07-18T00:27:19;5.38;;;3.30;;
57923;SDS011;43737;50.632;3.070;2022-07-18T00:29:45;6.05;;;3.08;;
57923;SDS011;43737;50.632;3.070;2022-07-18T00:32:11;5.65;;;2.85;;
57923;SDS011;43737;50.632;3.070;2022-07-18T00:34:37;5.85;;;2.95;;
57923;SDS011;43737;50.632;3.070;2022-07-18T00:37:04;5.82;;;2.80;;
57923;SDS011;43737;50.632;3.070;2022-07-18T00:39:30;5.70;;;3.13;;
57923;SDS011;43737;50.632;3.070;2022-07-18T00:41:56;6.13;;;3.20;;
57923;SDS011;43737;50.632;3.070;2022-07-18T00:44:23;8.38;;;2.70;;
57923;SDS011;43737;50.632;3.070;2022-07-18T00:46:50;6.72;;;3.05;;
57923;SDS011;43737;50.632;3.070;2022-07-18T00:49:16;5.75;;;2.92;;
57923;SDS011;43737;50.632;3.070;2022-07-18T00:51:42;11.73;;;3.40;;
57923;SDS011;43737;50.632;3.070;2022-07-18T00:54:08;5.47;;;2.90;;
57923;SDS011;43737;50.632;3.070;2022-07-18T00:56:34;9.77;;;2.67;;
57923;SDS011;43737;50.632;3.070;2022-07-18T00:59:00;6.75;;;2.95;;
57923;SDS011;43737;50.632;3.070;2022-07-18T01:01:26;6.18;;;2.75;;
57923;SDS011;43737;50.632;3.070;2022-07-18T01:04:08;5.18;;;3.05;;
57923;SDS011;43737;50.632;3.070;2022-07-18T01:06:34;4.35;;;2.58;;
57923;SDS011;43737;50.632;3.070;2022-07-18T01:09:00;4.45;;;2.28;;
57923;SDS011;43737;50.632;3.070;2022-07-18T01:11:26;7.63;;;3.00;;
57923;SDS011;43737;50.632;3.070;2022-07-18T01:13:52;6.63;;;3.10;;
57923;SDS011;43737;50.632;3.070;2022-07-18T01:16:19;4.70;;;2.42;;
57923;SDS011;43737;50.632;3.070;2022-07-18T01:18:46;7.65;;;2.38;;
57923;SDS011;43737;50.632;3.070;2022-07-18T01:21:13;7.68;;;2.90;;
57923;SDS011;43737;50.632;3.070;2022-07-18T01:23:39;6.50;;;2.55;;
57923;SDS011;43737;50.632;3.070;2022-07-18T01:26:05;9.30;;;2.50;;
57923;SDS011;43737;50.632;3.070;2022-07-18T01:28:31;7.18;;;3.22;;
57923;SDS011;43737;50.632;3.070;2022-07-18T01:30:57;8.35;;;3.25;;
57923;SDS011;43737;50.632;3.070;2022-07-18T01:33:23;4.22;;;2.88;;
57923;SDS011;43737;50.632;3.070;2022-07-18T01:35:49;5.25;;;2.35;;
57923;SDS011;43737;50.632;3.070;2022-07-18T01:38:16;5.38;;;2.58;;
57923;SDS011;43737;50.632;3.070;2022-07-18T01:40:44;4.80;;;2.47;;
57923;SDS011;43737;50.632;3.070;2022-07-18T01:43:10;5.30;;;2.60;;
57923;SDS011;43737;50.632;3.070;2022-07-18T01:45:36;4.03;;;2.70;;
57923;SDS011;43737;50.632;3.070;2022-07-18T01:48:03;7.80;;;2.70;;
57923;SDS011;43737;50.632;3.070;2022-07-18T01:50:29;5.00;;;2.72;;
57923;SDS011;43737;50.632;3.070;2022-07-18T01:52:55;8.57;;;2.85;;
57923;SDS011;43737;50.632;3.070;2022-07-18T01:55:21;6.43;;;2.67;;
57923;SDS011;43737;50.632;3.070;2022-07-18T01:57:47;6.07;;;2.58;;
57923;SDS011;43737;50.632;3.070;2022-07-18T02:00:13;6.70;;;3.10;;
57923;SDS011;43737;50.632;3.070;2022-07-18T02:02:39;3.90;;;2.83;;
57923;SDS011;43737;50.632;3.070;2022-07-18T02:05:06;5.00;;;2.95;;
57923;SDS011;43737;50.632;3.070;2022-07-18T02:07:38;14.07;;;3.38;;
57923;SDS011;43737;50.632;3.070;2022-07-18T02:12:34;6.90;;;3.10;;
57923;SDS011;43737;50.632;3.070;2022-07-18T02:15:03;7.05;;;2.45;;
57923;SDS011;43737;50.632;3.070;2022-07-18T02:17:30;9.57;;;3.55;;
57923;SDS011;43737;50.632;3.070;2022-07-18T02:19:56;7.65;;;2.70;;
57923;SDS011;43737;50.632;3.070;2022-07-18T02:22:22;5.68;;;2.63;;
57923;SDS011;43737;50.632;3.070;2022-07-18T02:24:49;6.97;;;2.65;;
57923;SDS011;43737;50.632;3.070;2022-07-18T02:27:15;11.57;;;2.78;;
57923;SDS011;43737;50.632;3.070;2022-07-18T02:29:41;8.80;;;3.08;;
57923;SDS011;43737;50.632;3.070;2022-07-18T02:32:08;8.73;;;3.10;;
57923;SDS011;43737;50.632;3.070;2022-07-18T02:34:34;9.70;;;3.03;;
57923;SDS011;43737;50.632;3.070;2022-07-18T02:37:00;6.57;;;2.83;;
57923;SDS011;43737;50.632;3.070;2022-07-18T02:39:26;6.70;;;2.47;;
57923;SDS011;43737;50.632;3.070;2022-07-18T02:41:53;9.13;;;3.20;;
57923;SDS011;43737;50.632;3.070;2022-07-18T02:44:19;5.70;;;2.60;;
57923;SDS011;43737;50.632;3.070;2022-07-18T02:46:45;7.07;;;3.17;;
57923;SDS011;43737;50.632;3.070;2022-07-18T02:49:11;11.60;;;3.28;;
57923;SDS011;43737;50.632;3.070;2022-07-18T02:51:53;4.60;;;2.72;;
57923;SDS011;43737;50.632;3.070;2022-07-18T02:54:20;5.93;;;3.08;;
57923;SDS011;43737;50.632;3.070;2022-07-18T02:56:46;5.05;;;2.80;;
57923;SDS011;43737;50.632;3.070;2022-07-18T02:59:12;7.30;;;2.75;;
57923;SDS011;43737;50.632;3.070;2022-07-18T03:01:38;7.10;;;3.20;;
57923;SDS011;43737;50.632;3.070;2022-07-18T03:04:04;8.63;;;3.10;;
57923;SDS011;43737;50.632;3.070;2022-07-18T03:06:30;11.40;;;3.38;;
57923;SDS011;43737;50.632;3.070;2022-07-18T03:08:56;7.60;;;2.67;;
57923;SDS011;43737;50.632;3.070;2022-07-18T03:11:22;6.18;;;2.90;;
57923;SDS011;43737;50.632;3.070;2022-07-18T03:13:48;10.27;;;3.65;;
57923;SDS011;43737;50.632;3.070;2022-07-18T03:16:14;8.60;;;2.90;;
57923;SDS011;43737;50.632;3.070;2022-07-18T03:18:40;6.63;;;3.00;;
57923;SDS011;43737;50.632;3.070;2022-07-18T03:21:06;7.82;;;2.95;;
57923;SDS011;43737;50.632;3.070;2022-07-18T03:23:32;9.65;;;3.20;;
57923;SDS011;43737;50.632;3.070;2022-07-18T03:25:58;8.85;;;3.13;;
57923;SDS011;43737;50.632;3.070;2022-07-18T03:28:24;8.10;;;3.15;;
57923;SDS011;43737;50.632;3.070;2022-07-18T03:30:50;5.15;;;3.10;;
57923;SDS011;43737;50.632;3.070;2022-07-18T03:33:17;8.05;;;3.50;;
57923;SDS011;43737;50.632;3.070;2022-07-18T03:35:43;8.63;;;3.53;;
57923;SDS011;43737;50.632;3.070;2022-07-18T03:38:09;14.57;;;4.78;;
57923;SDS011;43737;50.632;3.070;2022-07-18T03:40:35;10.95;;;4.10;;
57923;SDS011;43737;50.632;3.070;2022-07-18T03:43:01;10.00;;;3.80;;
57923;SDS011;43737;50.632;3.070;2022-07-18T03:45:27;10.50;;;3.50;;
57923;SDS011;43737;50.632;3.070;2022-07-18T03:47:53;7.15;;;3.17;;
57923;SDS011;43737;50.632;3.070;2022-07-18T03:50:20;7.57;;;3.55;;
57923;SDS011;43737;50.632;3.070;2022-07-18T03:52:46;6.78;;;3.25;;
57923;SDS011;43737;50.632;3.070;2022-07-18T03:55:12;9.98;;;3.55;;
57923;SDS011;43737;50.632;3.070;2022-07-18T03:57:39;6.57;;;3.30;;
57923;SDS011;43737;50.632;3.070;2022-07-18T04:00:06;8.35;;;3.38;;
57923;SDS011;43737;50.632;3.070;2022-07-18T04:02:39;8.10;;;3.25;;
57923;SDS011;43737;50.632;3.070;2022-07-18T04:05:05;6.60;;;3.22;;
57923;SDS011;43737;50.632;3.070;2022-07-18T04:07:31;15.05;;;3.85;;
57923;SDS011;43737;50.632;3.070;2022-07-18T04:09:57;9.88;;;3.83;;
57923;SDS011;43737;50.632;3.070;2022-07-18T04:12:23;8.93;;;3.38;;
57923;SDS011;43737;50.632;3.070;2022-07-18T04:14:49;8.25;;;3.40;;
57923;SDS011;43737;50.632;3.070;2022-07-18T04:17:15;10.90;;;3.72;;
57923;SDS011;43737;50.632;3.070;2022-07-18T04:19:41;13.77;;;4.47;;
57923;SDS011;43737;50.632;3.070;2022-07-18T04:22:07;8.82;;;3.55;;
57923;SDS011;43737;50.632;3.070;2022-07-18T04:24:33;7.22;;;3.42;;
57923;SDS011;43737;50.632;3.070;2022-07-18T04:26:59;8.57;;;2.78;;
57923;SDS011;43737;50.632;3.070;2022-07-18T04:29:25;9.40;;;3.55;;
57923;SDS011;43737;50.632;3.070;2022-07-18T04:31:51;10.73;;;3.97;;
57923;SDS011;43737;50.632;3.070;2022-07-18T04:34:17;13.68;;;3.35;;
57923;SDS011;43737;50.632;3.070;2022-07-18T04:36:43;10.90;;;3.45;;
57923;SDS011;43737;50.632;3.070;2022-07-18T04:39:09;8.63;;;3.58;;
57923;SDS011;43737;50.632;3.070;2022-07-18T04:41:35;8.15;;;3.38;;
57923;SDS011;43737;50.632;3.070;2022-07-18T04:44:02;8.93;;;3.65;;
57923;SDS011;43737;50.632;3.070;2022-07-18T04:46:27;8.75;;;3.70;;
57923;SDS011;43737;50.632;3.070;2022-07-18T04:48:53;9.63;;;3.88;;
57923;SDS011;43737;50.632;3.070;2022-07-18T04:51:19;9.88;;;3.60;;
57923;SDS011;43737;50.632;3.070;2022-07-18T04:53:45;12.23;;;3.80;;
57923;SDS011;43737;50.632;3.070;2022-07-18T04:56:11;9.90;;;3.50;;
57923;SDS011;43737;50.632;3.070;2022-07-18T04:58:37;15.27;;;3.45;;
57923;SDS011;43737;50.632;3.070;2022-07-18T05:01:03;12.30;;;3.60;;
57923;SDS011;43737;50.632;3.070;2022-07-18T05:03:29;8.20;;;3.30;;
57923;SDS011;43737;50.632;3.070;2022-07-18T05:05:55;8.63;;;3.53;;
57923;SDS011;43737;50.632;3.070;2022-07-18T05:08:21;11.05;;;4.10;;
57923;SDS011;43737;50.632;3.070;2022-07-18T05:10:47;9.52;;;3.78;;
57923;SDS011;43737;50.632;3.070;2022-07-18T05:13:13;13.63;;;4.60;;
57923;SDS011;43737;50.632;3.070;2022-07-18T05:15:40;13.02;;;4.13;;
57923;SDS011;43737;50.632;3.070;2022-07-18T05:18:05;10.40;;;2.88;;
57923;SDS011;43737;50.632;3.070;2022-07-18T05:20:32;9.70;;;3.70;;
57923;SDS011;43737;50.632;3.070;2022-07-18T05:22:58;8.43;;;3.75;;
57923;SDS011;43737;50.632;3.070;2022-07-18T05:25:24;8.50;;;3.83;;
57923;SDS011;43737;50.632;3.070;2022-07-18T05:27:50;8.95;;;3.70;;
57923;SDS011;43737;50.632;3.070;2022-07-18T05:30:17;12.32;;;4.00;;
57923;SDS011;43737;50.632;3.070;2022-07-18T05:32:44;11.07;;;3.90;;
57923;SDS011;43737;50.632;3.070;2022-07-18T05:35:11;9.23;;;3.45;;
57923;SDS011;43737;50.632;3.070;2022-07-18T05:37:38;13.50;;;4.03;;
57923;SDS011;43737;50.632;3.070;2022-07-18T05:40:05;16.15;;;4.45;;
57923;SDS011;43737;50.632;3.070;2022-07-18T05:42:31;14.18;;;3.88;;
57923;SDS011;43737;50.632;3.070;2022-07-18T05:44:57;17.83;;;4.70;;
57923;SDS011;43737;50.632;3.070;2022-07-18T05:47:23;13.90;;;4.72;;
57923;SDS011;43737;50.632;3.070;2022-07-18T05:49:49;19.52;;;5.07;;
57923;SDS011;43737;50.632;3.070;2022-07-18T05:52:15;19.45;;;4.90;;
57923;SDS011;43737;50.632;3.070;2022-07-18T05:54:41;11.18;;;3.90;;
57923;SDS011;43737;50.632;3.070;2022-07-18T05:57:07;14.15;;;4.35;;
57923;SDS011;43737;50.632;3.070;2022-07-18T05:59:33;15.73;;;4.25;;
57923;SDS011;43737;50.632;3.070;2022-07-18T06:01:59;13.02;;;4.40;;
57923;SDS011;43737;50.632;3.070;2022-07-18T06:04:26;10.43;;;3.92;;
57923;SDS011;43737;50.632;3.070;2022-07-18T06:06:52;12.40;;;4.40;;
57923;SDS011;43737;50.632;3.070;2022-07-18T06:09:18;15.35;;;4.40;;
57923;SDS011;43737;50.632;3.070;2022-07-18T06:11:44;12.50;;;3.67;;
57923;SDS011;43737;50.632;3.070;2022-07-18T06:14:10;26.30;;;4.47;;
57923;SDS011;43737;50.632;3.070;2022-07-18T06:16:36;16.85;;;4.47;;
57923;SDS011;43737;50.632;3.070;2022-07-18T06:19:02;15.65;;;3.90;;
57923;SDS011;43737;50.632;3.070;2022-07-18T06:21:28;21.25;;;4.70;;
57923;SDS011;43737;50.632;3.070;2022-07-18T06:23:54;18.75;;;4.38;;
57923;SDS011;43737;50.632;3.070;2022-07-18T06:26:20;19.70;;;4.32;;
57923;SDS011;43737;50.632;3.070;2022-07-18T06:28:47;10.32;;;3.60;;
57923;SDS011;43737;50.632;3.070;2022-07-18T06:31:13;15.75;;;4.30;;
57923;SDS011;43737;50.632;3.070;2022-07-18T06:33:42;13.15;;;3.63;;
57923;SDS011;43737;50.632;3.070;2022-07-18T06:36:08;14.23;;;3.80;;
57923;SDS011;43737;50.632;3.070;2022-07-18T06:38:36;12.88;;;4.20;;
57923;SDS011;43737;50.632;3.070;2022-07-18T06:41:02;19.35;;;4.28;;
57923;SDS011;43737;50.632;3.070;2022-07-18T06:43:29;17.83;;;3.97;;
57923;SDS011;43737;50.632;3.070;2022-07-18T06:45:55;14.80;;;3.38;;
57923;SDS011;43737;50.632;3.070;2022-07-18T06:48:22;8.45;;;3.03;;
57923;SDS011;43737;50.632;3.070;2022-07-18T06:50:48;7.70;;;3.17;;
57923;SDS011;43737;50.632;3.070;2022-07-18T06:53:15;11.32;;;3.15;;
57923;SDS011;43737;50.632;3.070;2022-07-18T06:55:41;5.75;;;3.40;;
57923;SDS011;43737;50.632;3.070;2022-07-18T06:58:07;12.90;;;3.90;;
57923;SDS011;43737;50.632;3.070;2022-07-18T07:00:34;8.63;;;3.38;;
57923;SDS011;43737;50.632;3.070;2022-07-18T07:03:00;6.28;;;2.95;;
57923;SDS011;43737;50.632;3.070;2022-07-18T07:05:26;8.15;;;3.45;;
57923;SDS011;43737;50.632;3.070;2022-07-18T07:07:52;8.80;;;2.92;;
57923;SDS011;43737;50.632;3.070;2022-07-18T07:10:19;8.65;;;3.08;;
57923;SDS011;43737;50.632;3.070;2022-07-18T07:12:49;7.32;;;3.03;;
57923;SDS011;43737;50.632;3.070;2022-07-18T07:15:17;7.28;;;2.58;;
57923;SDS011;43737;50.632;3.070;2022-07-18T07:17:43;7.43;;;3.00;;
57923;SDS011;43737;50.632;3.070;2022-07-18T07:20:10;6.20;;;2.65;;
57923;SDS011;43737;50.632;3.070;2022-07-18T07:25:34;3.75;;;2.35;;
57923;SDS011;43737;50.632;3.070;2022-07-18T07:28:01;9.85;;;2.50;;
57923;SDS011;43737;50.632;3.070;2022-07-18T07:30:27;8.52;;;3.25;;
57923;SDS011;43737;50.632;3.070;2022-07-18T07:32:53;10.43;;;2.78;;
57923;SDS011;43737;50.632;3.070;2022-07-18T07:35:19;5.82;;;2.80;;
57923;SDS011;43737;50.632;3.070;2022-07-18T07:37:49;8.70;;;2.55;;
57923;SDS011;43737;50.632;3.070;2022-07-18T07:40:16;4.40;;;2.42;;
57923;SDS011;43737;50.632;3.070;2022-07-18T07:42:42;7.13;;;2.55;;
57923;SDS011;43737;50.632;3.070;2022-07-18T07:45:09;10.38;;;2.67;;
57923;SDS011;43737;50.632;3.070;2022-07-18T07:47:35;11.55;;;2.95;;
57923;SDS011;43737;50.632;3.070;2022-07-18T07:50:02;7.15;;;2.90;;
57923;SDS011;43737;50.632;3.070;2022-07-18T07:52:28;10.48;;;2.70;;
57923;SDS011;43737;50.632;3.070;2022-07-18T07:54:55;10.13;;;3.70;;
57923;SDS011;43737;50.632;3.070;2022-07-18T07:57:21;9.38;;;2.63;;
57923;SDS011;43737;50.632;3.070;2022-07-18T07:59:47;11.68;;;2.83;;
57923;SDS011;43737;50.632;3.070;2022-07-18T08:02:13;8.82;;;2.90;;
57923;SDS011;43737;50.632;3.070;2022-07-18T08:04:40;11.80;;;3.25;;
57923;SDS011;43737;50.632;3.070;2022-07-18T08:07:06;6.65;;;2.67;;
57923;SDS011;43737;50.632;3.070;2022-07-18T08:09:33;6.05;;;2.80;;
57923;SDS011;43737;50.632;3.070;2022-07-18T08:11:59;3.92;;;2.47;;
57923;SDS011;43737;50.632;3.070;2022-07-18T08:14:25;10.80;;;2.83;;
57923;SDS011;43737;50.632;3.070;2022-07-18T08:16:51;9.50;;;2.92;;
57923;SDS011;43737;50.632;3.070;2022-07-18T08:19:17;13.60;;;3.03;;
57923;SDS011;43737;50.632;3.070;2022-07-18T08:21:43;8.48;;;2.75;;
57923;SDS011;43737;50.632;3.070;2022-07-18T08:24:09;9.05;;;2.80;;
57923;SDS011;43737;50.632;3.070;2022-07-18T08:26:35;6.60;;;3.00;;
57923;SDS011;43737;50.632;3.070;2022-07-18T08:29:04;5.25;;;2.58;;
57923;SDS011;43737;50.632;3.070;2022-07-18T08:31:30;4.03;;;2.65;;
57923;SDS011;43737;50.632;3.070;2022-07-18T08:33:56;4.47;;;2.60;;
57923;SDS011;43737;50.632;3.070;2022-07-18T08:36:22;5.65;;;2.35;;
57923;SDS011;43737;50.632;3.070;2022-07-18T08:38:49;5.18;;;2.17;;
57923;SDS011;43737;50.632;3.070;2022-07-18T08:41:16;9.55;;;3.78;;
57923;SDS011;43737;50.632;3.070;2022-07-18T08:43:43;18.88;;;4.65;;
57923;SDS011;43737;50.632;3.070;2022-07-18T08:46:10;6.18;;;3.05;;
57923;SDS011;43737;50.632;3.070;2022-07-18T08:48:36;10.05;;;3.53;;
57923;SDS011;43737;50.632;3.070;2022-07-18T08:51:02;7.68;;;3.58;;
57923;SDS011;43737;50.632;3.070;2022-07-18T08:53:28;4.93;;;2.88;;
57923;SDS011;43737;50.632;3.070;2022-07-18T08:55:54;9.75;;;2.85;;
57923;SDS011;43737;50.632;3.070;2022-07-18T08:58:20;4.70;;;2.70;;
57923;SDS011;43737;50.632;3.070;2022-07-18T09:00:46;5.45;;;3.05;;
57923;SDS011;43737;50.632;3.070;2022-07-18T09:03:12;5.43;;;2.55;;
57923;SDS011;43737;50.632;3.070;2022-07-18T09:05:38;3.63;;;2.50;;
57923;SDS011;43737;50.632;3.070;2022-07-18T09:08:08;6.32;;;2.67;;
57923;SDS011;43737;50.632;3.070;2022-07-18T09:13:16;2.95;;;2.30;;
57923;SDS011;43737;50.632;3.070;2022-07-18T09:16:01;3.85;;;2.58;;
57923;SDS011;43737;50.632;3.070;2022-07-18T09:18:28;4.03;;;2.50;;
57923;SDS011;43737;50.632;3.070;2022-07-18T09:21:05;6.45;;;3.00;;
57923;SDS011;43737;50.632;3.070;2022-07-18T09:23:33;5.45;;;2.90;;
57923;SDS011;43737;50.632;3.070;2022-07-18T09:25:59;2.63;;;2.33;;
57923;SDS011;43737;50.632;3.070;2022-07-18T09:28:28;9.15;;;2.50;;
57923;SDS011;43737;50.632;3.070;2022-07-18T09:30:55;6.03;;;2.88;;
57923;SDS011;43737;50.632;3.070;2022-07-18T09:33:22;4.43;;;2.60;;
57923;SDS011;43737;50.632;3.070;2022-07-18T09:35:49;5.90;;;2.47;;
57923;SDS011;43737;50.632;3.070;2022-07-18T09:38:16;3.58;;;2.58;;
57923;SDS011;43737;50.632;3.070;2022-07-18T09:40:43;6.78;;;2.60;;
57923;SDS011;43737;50.632;3.070;2022-07-18T09:43:11;5.38;;;2.42;;
57923;SDS011;43737;50.632;3.070;2022-07-18T09:45:38;3.20;;;2.30;;
57923;SDS011;43737;50.632;3.070;2022-07-18T09:48:05;7.18;;;2.22;;
57923;SDS011;43737;50.632;3.070;2022-07-18T09:50:54;4.97;;;2.63;;
57923;SDS011;43737;50.632;3.070;2022-07-18T09:53:19;2.53;;;2.15;;
57923;SDS011;43737;50.632;3.070;2022-07-18T09:55:49;4.32;;;2.10;;
57923;SDS011;43737;50.632;3.070;2022-07-18T09:58:21;3.58;;;2.38;;
57923;SDS011;43737;50.632;3.070;2022-07-18T10:00:48;3.65;;;2.40;;
57923;SDS011;43737;50.632;3.070;2022-07-18T10:03:14;4.85;;;2.60;;
57923;SDS011;43737;50.632;3.070;2022-07-18T10:05:41;2.63;;;2.42;;
57923;SDS011;43737;50.632;3.070;2022-07-18T10:08:11;4.00;;;2.53;;
57923;SDS011;43737;50.632;3.070;2022-07-18T10:10:38;4.13;;;2.53;;
57923;SDS011;43737;50.632;3.070;2022-07-18T10:13:05;4.40;;;2.13;;
57923;SDS011;43737;50.632;3.070;2022-07-18T10:15:32;2.33;;;1.77;;
57923;SDS011;43737;50.632;3.070;2022-07-18T10:17:59;5.63;;;1.92;;
57923;SDS011;43737;50.632;3.070;2022-07-18T10:20:26;8.15;;;2.40;;
57923;SDS011;43737;50.632;3.070;2022-07-18T10:22:53;8.43;;;2.20;;
57923;SDS011;43737;50.632;3.070;2022-07-18T10:25:21;2.33;;;2.10;;
57923;SDS011;43737;50.632;3.070;2022-07-18T10:27:49;3.53;;;2.10;;
57923;SDS011;43737;50.632;3.070;2022-07-18T10:30:16;3.45;;;2.30;;
57923;SDS011;43737;50.632;3.070;2022-07-18T10:32:44;4.68;;;2.38;;
57923;SDS011;43737;50.632;3.070;2022-07-18T10:35:10;4.97;;;2.13;;
57923;SDS011;43737;50.632;3.070;2022-07-18T10:37:40;2.55;;;2.15;;
57923;SDS011;43737;50.632;3.070;2022-07-18T10:40:26;2.80;;;2.30;;
57923;SDS011;43737;50.632;3.070;2022-07-18T10:45:44;5.32;;;3.00;;
57923;SDS011;43737;50.632;3.070;2022-07-18T10:51:08;3.75;;;2.13;;
57923;SDS011;43737;50.632;3.070;2022-07-18T10:58:44;3.78;;;2.40;;
57923;SDS011;43737;50.632;3.070;2022-07-18T11:01:14;3.38;;;1.92;;
57923;SDS011;43737;50.632;3.070;2022-07-18T11:03:41;4.43;;;2.35;;
57923;SDS011;43737;50.632;3.070;2022-07-18T11:06:07;2.45;;;2.25;;
57923;SDS011;43737;50.632;3.070;2022-07-18T11:08:33;4.03;;;2.15;;
57923;SDS011;43737;50.632;3.070;2022-07-18T11:13:30;3.95;;;2.15;;
57923;SDS011;43737;50.632;3.070;2022-07-18T11:21:23;5.35;;;2.15;;
57923;SDS011;43737;50.632;3.070;2022-07-18T11:23:51;4.50;;;2.33;;
57923;SDS011;43737;50.632;3.070;2022-07-18T11:26:18;8.20;;;2.25;;
57923;SDS011;43737;50.632;3.070;2022-07-18T11:28:45;5.13;;;2.22;;
57923;SDS011;43737;50.632;3.070;2022-07-18T11:31:12;3.80;;;2.15;;
57923;SDS011;43737;50.632;3.070;2022-07-18T11:33:44;2.88;;;2.22;;
57923;SDS011;43737;50.632;3.070;2022-07-18T11:36:17;2.90;;;2.20;;
57923;SDS011;43737;50.632;3.070;2022-07-18T11:38:54;2.60;;;2.20;;
57923;SDS011;43737;50.632;3.070;2022-07-18T11:41:21;4.68;;;2.28;;
57923;SDS011;43737;50.632;3.070;2022-07-18T11:43:48;4.78;;;2.10;;
57923;SDS011;43737;50.632;3.070;2022-07-18T11:46:15;4.63;;;2.38;;
57923;SDS011;43737;50.632;3.070;2022-07-18T11:48:42;6.93;;;2.35;;
57923;SDS011;43737;50.632;3.070;2022-07-18T11:51:12;6.70;;;2.55;;
57923;SDS011;43737;50.632;3.070;2022-07-18T11:53:48;6.90;;;2.50;;
57923;SDS011;43737;50.632;3.070;2022-07-18T11:56:14;2.20;;;2.00;;
57923;SDS011;43737;50.632;3.070;2022-07-18T11:58:41;2.88;;;2.10;;
57923;SDS011;43737;50.632;3.070;2022-07-18T12:01:08;2.10;;;1.92;;
57923;SDS011;43737;50.632;3.070;2022-07-18T12:03:34;2.50;;;2.30;;
57923;SDS011;43737;50.632;3.070;2022-07-18T12:06:12;7.68;;;2.78;;
57923;SDS011;43737;50.632;3.070;2022-07-18T12:08:46;4.78;;;2.35;;
57923;SDS011;43737;50.632;3.070;2022-07-18T12:11:16;2.78;;;2.28;;
57923;SDS011;43737;50.632;3.070;2022-07-18T12:18:56;7.53;;;2.70;;
57923;SDS011;43737;50.632;3.070;2022-07-18T12:21:23;4.68;;;2.17;;
57923;SDS011;43737;50.632;3.070;2022-07-18T12:23:49;4.43;;;2.45;;
57923;SDS011;43737;50.632;3.070;2022-07-18T12:26:28;4.13;;;2.38;;
57923;SDS011;43737;50.632;3.070;2022-07-18T12:29:07;11.35;;;2.50;;
57923;SDS011;43737;50.632;3.070;2022-07-18T12:34:13;4.45;;;2.17;;
57923;SDS011;43737;50.632;3.070;2022-07-18T12:36:49;4.95;;;2.28;;
57923;SDS011;43737;50.632;3.070;2022-07-18T12:39:31;5.40;;;2.20;;
57923;SDS011;43737;50.632;3.070;2022-07-18T12:41:58;6.82;;;2.78;;
57923;SDS011;43737;50.632;3.070;2022-07-18T12:44:25;5.63;;;2.78;;
57923;SDS011;43737;50.632;3.070;2022-07-18T12:46:51;4.43;;;2.15;;
57923;SDS011;43737;50.632;3.070;2022-07-18T12:49:17;2.90;;;2.60;;
57923;SDS011;43737;50.632;3.070;2022-07-18T12:51:43;6.07;;;2.40;;
57923;SDS011;43737;50.632;3.070;2022-07-18T12:54:09;5.63;;;2.63;;
57923;SDS011;43737;50.632;3.070;2022-07-18T12:56:35;6.15;;;2.30;;
57923;SDS011;43737;50.632;3.070;2022-07-18T12:59:01;6.68;;;2.60;;
57923;SDS011;43737;50.632;3.070;2022-07-18T13:01:27;4.75;;;2.70;;
57923;SDS011;43737;50.632;3.070;2022-07-18T13:03:53;4.63;;;2.40;;
57923;SDS011;43737;50.632;3.070;2022-07-18T13:06:19;2.78;;;2.58;;
57923;SDS011;43737;50.632;3.070;2022-07-18T13:08:45;8.70;;;2.83;;
57923;SDS011;43737;50.632;3.070;2022-07-18T13:11:11;5.90;;;2.75;;
57923;SDS011;43737;50.632;3.070;2022-07-18T13:13:39;5.32;;;2.42;;
57923;SDS011;43737;50.632;3.070;2022-07-18T13:16:05;3.45;;;2.60;;
57923;SDS011;43737;50.632;3.070;2022-07-18T13:18:31;7.00;;;2.70;;
57923;SDS011;43737;50.632;3.070;2022-07-18T13:20:57;3.70;;;2.60;;
57923;SDS011;43737;50.632;3.070;2022-07-18T13:23:23;4.60;;;2.20;;
57923;SDS011;43737;50.632;3.070;2022-07-18T13:25:49;3.00;;;2.20;;
57923;SDS011;43737;50.632;3.070;2022-07-18T13:28:15;5.03;;;1.98;;
57923;SDS011;43737;50.632;3.070;2022-07-18T13:30:41;3.63;;;2.25;;
57923;SDS011;43737;50.632;3.070;2022-07-18T13:33:07;4.07;;;1.90;;
57923;SDS011;43737;50.632;3.070;2022-07-18T13:35:33;2.65;;;1.98;;
57923;SDS011;43737;50.632;3.070;2022-07-18T13:38:00;5.35;;;2.05;;
57923;SDS011;43737;50.632;3.070;2022-07-18T13:40:26;3.30;;;2.13;;
57923;SDS011;43737;50.632;3.070;2022-07-18T13:42:52;4.95;;;1.90;;
57923;SDS011;43737;50.632;3.070;2022-07-18T13:45:18;2.42;;;2.20;;
57923;SDS011;43737;50.632;3.070;2022-07-18T13:47:44;3.38;;;2.30;;
57923;SDS011;43737;50.632;3.070;2022-07-18T13:50:10;4.68;;;2.28;;
57923;SDS011;43737;50.632;3.070;2022-07-18T13:52:36;6.55;;;2.40;;
57923;SDS011;43737;50.632;3.070;2022-07-18T13:55:03;7.00;;;2.22;;
57923;SDS011;43737;50.632;3.070;2022-07-18T13:57:29;5.22;;;2.40;;
57923;SDS011;43737;50.632;3.070;2022-07-18T13:59:55;8.15;;;2.60;;
57923;SDS011;43737;50.632;3.070;2022-07-18T14:02:21;4.88;;;2.20;;
57923;SDS011;43737;50.632;3.070;2022-07-18T14:04:47;6.40;;;2.03;;
57923;SDS011;43737;50.632;3.070;2022-07-18T14:07:13;3.28;;;1.92;;
57923;SDS011;43737;50.632;3.070;2022-07-18T14:09:42;2.78;;;1.98;;
57923;SDS011;43737;50.632;3.070;2022-07-18T14:12:08;5.38;;;2.30;;
57923;SDS011;43737;50.632;3.070;2022-07-18T14:14:34;3.92;;;2.10;;
57923;SDS011;43737;50.632;3.070;2022-07-18T14:17:00;2.97;;;2.00;;
57923;SDS011;43737;50.632;3.070;2022-07-18T14:19:26;4.20;;;2.45;;
57923;SDS011;43737;50.632;3.070;2022-07-18T14:21:52;4.45;;;2.30;;
57923;SDS011;43737;50.632;3.070;2022-07-18T14:24:18;3.97;;;2.10;;
57923;SDS011;43737;50.632;3.070;2022-07-18T14:26:44;2.75;;;2.20;;
57923;SDS011;43737;50.632;3.070;2022-07-18T14:29:10;4.60;;;2.08;;
57923;SDS011;43737;50.632;3.070;2022-07-18T14:31:36;3.55;;;1.98;;
57923;SDS011;43737;50.632;3.070;2022-07-18T14:34:02;3.95;;;1.80;;
57923;SDS011;43737;50.632;3.070;2022-07-18T14:36:28;2.40;;;1.95;;
57923;SDS011;43737;50.632;3.070;2022-07-18T14:38:56;5.93;;;1.90;;
57923;SDS011;43737;50.632;3.070;2022-07-18T14:41:22;5.25;;;2.17;;
57923;SDS011;43737;50.632;3.070;2022-07-18T14:43:48;4.32;;;2.20;;
57923;SDS011;43737;50.632;3.070;2022-07-18T14:46:14;6.32;;;2.47;;
57923;SDS011;43737;50.632;3.070;2022-07-18T14:48:40;2.53;;;1.88;;
57923;SDS011;43737;50.632;3.070;2022-07-18T14:51:06;5.28;;;2.25;;
57923;SDS011;43737;50.632;3.070;2022-07-18T14:53:32;2.92;;;1.98;;
57923;SDS011;43737;50.632;3.070;2022-07-18T14:55:58;4.15;;;1.90;;
57923;SDS011;43737;50.632;3.070;2022-07-18T14:58:24;4.15;;;1.92;;
57923;SDS011;43737;50.632;3.070;2022-07-18T15:00:50;3.75;;;1.90;;
57923;SDS011;43737;50.632;3.070;2022-07-18T15:03:16;8.10;;;1.98;;
57923;SDS011;43737;50.632;3.070;2022-07-18T15:05:42;3.30;;;2.10;;
57923;SDS011;43737;50.632;3.070;2022-07-18T15:08:08;2.72;;;1.67;;
57923;SDS011;43737;50.632;3.070;2022-07-18T15:10:34;10.20;;;2.20;;
57923;SDS011;43737;50.632;3.070;2022-07-18T15:13:00;6.55;;;2.38;;
57923;SDS011;43737;50.632;3.070;2022-07-18T15:15:26;6.68;;;1.80;;
57923;SDS011;43737;50.632;3.070;2022-07-18T15:17:52;5.35;;;1.92;;